Maastricht, Netherlands

12:11 AM CET on December 11, 2016 (GMT +0100)
Hoofdstraat | | Change Station

Elev 436 ft 50.90 °N, 5.82 °E | Updated 7 minutes ago

Overcast
Overcast
48.6 °F
Feels Like 49 °F
N
1.9
Wind Variable Wind from South
Gusts 5.6 mph

Today
High -- | Low -- °F
--% Chance of Precip.
Yesterday
High -- | Low -- °F
Precip. -- in
Pressure 30.04 in
Visibility 5.6 miles
Clouds Few 1500 ft
Scattered Clouds 6000 ft
Overcast 6500 ft
Windchill 49 °F
Dew Point 46 °F
Humidity 90%
Rainfall 0.00 in
Snow Depth Not available.
8:29 AM 4:30 PM
Waxing Gibbous, 87% visible
SPECI EHEH 102308Z AUTO 20013KT 9000 -DZRA FEW015CB SCT060 OVC065 09/08 Q1017 BLU
Pressure 30.04 in
Visibility 5.6 miles
Clouds Few 1500 ft
Scattered Clouds 6000 ft
Overcast 6500 ft
Windchill 49 °F
Dew Point 46 °F
Humidity 90%
Rainfall 0.00 in
Snow Depth Not available.
8:29 AM 4:30 PM
Waxing Gibbous, 87% visible
SPECI EHEH 102308Z AUTO 20013KT 9000 -DZRA FEW015CB SCT060 OVC065 09/08 Q1017 BLU

10-Day Weather Forecast

×

Almanac

Astronomy

Dec. 11, 2016 Rise Set
Actual Time
Civil Twilight
Nautical Twilight
Astronomical Twilight
Moon
Length of Visible Light
Length of Day
Tomorrow will be .
, % of the Moon is Illuminated

Today's Extremes

Country Highs Country Lows

Community

WunderPhotos

Upload Photos

1,956,670 photos uploaded!

WunderBlog® & News

Nearby

Air Quality

  Air Quality AQ Index Pollutant
Not available.

Snow Depth

Station Depth Elevation

Earthquake Activity

City Distance Mag. Time & Date
Minimum magnitude displayed is 2.5.

Coastal Water Temperatures

Place Temperature

Stations

Nearby Weather Stations

Station Location Temp. Windchill Dew Point Humidity Wind Precip. Elev Updated Type